createdAt,value
2022-12-19T00:01:38.773Z,19.70
2022-12-19T00:04:09.390Z,19.70
2022-12-19T00:06:37.351Z,19.70
2022-12-19T00:09:05.565Z,19.70
2022-12-19T00:11:33.760Z,19.70
2022-12-19T00:14:01.104Z,19.70
2022-12-19T00:16:30.265Z,19.70
2022-12-19T00:19:00.757Z,19.70
2022-12-19T00:21:30.340Z,19.70
2022-12-19T00:23:58.117Z,19.70
2022-12-19T00:26:27.900Z,19.70
2022-12-19T00:28:58.400Z,19.70
2022-12-19T00:31:28.077Z,19.70
2022-12-19T00:33:55.807Z,19.70
2022-12-19T00:36:25.073Z,19.70
2022-12-19T00:38:53.792Z,19.70
2022-12-19T00:41:23.355Z,19.80
2022-12-19T00:43:59.155Z,19.70
2022-12-19T00:46:27.448Z,19.70
2022-12-19T00:48:54.811Z,19.70
2022-12-19T00:51:24.808Z,19.80
2022-12-19T00:53:53.519Z,19.70
2022-12-19T00:56:29.603Z,19.70
2022-12-19T00:58:57.384Z,19.70
2022-12-19T01:01:28.109Z,19.70
2022-12-19T01:04:27.245Z,19.80
2022-12-19T01:06:43.102Z,19.70
2022-12-19T01:09:12.659Z,19.70
2022-12-19T01:11:59.587Z,19.70
2022-12-19T01:14:26.837Z,19.70
2022-12-19T01:16:53.877Z,19.70
2022-12-19T01:19:21.113Z,19.70
2022-12-19T01:21:48.382Z,19.70
2022-12-19T01:24:18.994Z,19.70
2022-12-19T01:26:46.596Z,19.70
2022-12-19T01:29:13.613Z,19.70
2022-12-19T01:31:40.739Z,19.70
2022-12-19T01:34:07.930Z,19.70
2022-12-19T01:36:38.587Z,19.70
2022-12-19T01:39:08.023Z,19.70
2022-12-19T01:41:35.772Z,19.70
2022-12-19T01:44:06.464Z,19.70
2022-12-19T01:46:44.672Z,19.70
2022-12-19T01:49:26.439Z,19.70
2022-12-19T01:51:55.488Z,19.70
2022-12-19T01:54:27.175Z,19.70
2022-12-19T01:56:57.784Z,19.70
2022-12-19T01:59:32.128Z,19.70
2022-12-19T02:02:08.637Z,19.70
2022-12-19T02:04:36.495Z,19.70
2022-12-19T02:07:15.868Z,19.70
2022-12-19T02:09:47.052Z,19.70
2022-12-19T02:12:14.923Z,19.70
2022-12-19T02:14:42.621Z,19.70
2022-12-19T02:17:39.102Z,19.60
2022-12-19T02:20:45.856Z,19.70
2022-12-19T02:23:48.488Z,19.70
2022-12-19T02:26:47.304Z,19.60
2022-12-19T02:29:39.621Z,19.70
2022-12-19T02:32:18.749Z,19.70
2022-12-19T02:35:19.986Z,19.70
2022-12-19T02:38:10.722Z,19.70
2022-12-19T02:40:46.805Z,19.60
2022-12-19T02:43:20.192Z,19.70
2022-12-19T02:45:48.239Z,19.70
2022-12-19T02:48:19.267Z,19.70
2022-12-19T02:50:49.976Z,19.70
2022-12-19T02:53:18.212Z,19.70
2022-12-19T02:56:30.579Z,19.70
2022-12-19T02:59:37.338Z,19.70
2022-12-19T03:02:31.423Z,19.70
2022-12-19T03:05:08.842Z,19.70
2022-12-19T03:07:56.134Z,19.70
2022-12-19T03:10:56.542Z,19.70
2022-12-19T03:13:29.959Z,19.70
2022-12-19T03:15:59.500Z,19.70
2022-12-19T03:18:27.307Z,19.70
2022-12-19T03:21:34.089Z,19.70
2022-12-19T03:24:02.006Z,19.70
2022-12-19T03:26:33.193Z,19.70
2022-12-19T03:29:08.083Z,19.70
2022-12-19T03:31:36.074Z,19.70
2022-12-19T03:34:10.911Z,19.70
2022-12-19T03:36:42.762Z,19.70
2022-12-19T03:39:12.670Z,19.70
2022-12-19T03:42:02.058Z,19.70
2022-12-19T03:44:32.847Z,19.70
2022-12-19T03:47:18.271Z,19.60
2022-12-19T03:49:46.920Z,19.60
2022-12-19T03:52:46.404Z,19.60
2022-12-19T03:55:30.483Z,19.70
2022-12-19T03:58:03.984Z,19.60
2022-12-19T04:00:34.342Z,19.60
2022-12-19T04:03:02.179Z,19.60
2022-12-19T04:05:30.059Z,19.60
2022-12-19T04:08:00.248Z,19.60
2022-12-19T04:10:28.824Z,19.60
2022-12-19T04:13:03.325Z,19.60
2022-12-19T04:15:54.716Z,19.60
2022-12-19T04:18:22.854Z,19.60
2022-12-19T04:21:03.932Z,19.60
2022-12-19T04:23:44.812Z,19.60
2022-12-19T04:26:13.943Z,19.60
2022-12-19T04:28:47.591Z,19.60
2022-12-19T04:31:17.111Z,19.60
2022-12-19T04:33:44.314Z,19.60
2022-12-19T04:36:12.163Z,19.60
2022-12-19T04:38:39.312Z,19.60
2022-12-19T04:41:06.637Z,19.60
2022-12-19T04:43:33.752Z,19.60
2022-12-19T04:46:01.399Z,19.60
2022-12-19T04:48:28.671Z,19.60
2022-12-19T04:50:56.558Z,19.60
2022-12-19T04:53:25.097Z,19.60
2022-12-19T04:55:59.897Z,19.60
2022-12-19T04:58:27.306Z,19.60
2022-12-19T05:00:54.319Z,19.60
2022-12-19T05:03:21.442Z,19.60
2022-12-19T05:05:48.573Z,19.60
2022-12-19T05:08:16.917Z,19.60
2022-12-19T05:10:44.010Z,19.60
2022-12-19T05:13:11.265Z,19.60
2022-12-19T05:15:38.394Z,19.60
2022-12-19T05:18:05.908Z,19.60
2022-12-19T05:20:32.961Z,19.60
2022-12-19T05:23:03.470Z,19.60
2022-12-19T05:25:35.612Z,19.60
2022-12-19T05:28:02.563Z,19.60
2022-12-19T05:30:29.612Z,19.60
2022-12-19T05:32:56.647Z,19.60
2022-12-19T05:35:23.709Z,19.60
2022-12-19T05:37:50.723Z,19.60
2022-12-19T05:40:17.892Z,19.60
2022-12-19T05:42:44.938Z,19.60
2022-12-19T05:45:12.293Z,19.60
2022-12-19T05:47:39.354Z,19.60
2022-12-19T05:50:06.807Z,19.60
2022-12-19T05:52:33.858Z,19.60
2022-12-19T05:55:00.944Z,19.60
2022-12-19T05:57:27.992Z,19.60
2022-12-19T05:59:55.104Z,19.60
2022-12-19T06:02:22.203Z,19.60
2022-12-19T06:04:49.410Z,19.60
2022-12-19T06:07:20.729Z,19.70
2022-12-19T06:09:48.257Z,19.70
2022-12-19T06:12:15.339Z,19.70
2022-12-19T06:14:42.384Z,19.70
2022-12-19T06:17:09.497Z,19.70
2022-12-19T06:19:36.649Z,19.80
2022-12-19T06:22:03.760Z,19.80
2022-12-19T06:24:30.854Z,19.80
2022-12-19T06:26:57.915Z,19.90
2022-12-19T06:29:24.956Z,20.00
2022-12-19T06:31:52.067Z,20.00
2022-12-19T06:34:46.897Z,20.00
2022-12-19T06:37:08.335Z,20.00
2022-12-19T06:39:35.719Z,20.10
2022-12-19T06:42:22.691Z,20.10
2022-12-19T06:44:52.517Z,20.20
2022-12-19T06:47:20.493Z,20.30
2022-12-19T06:49:48.850Z,20.30
2022-12-19T06:52:16.965Z,20.30
2022-12-19T06:54:44.090Z,20.40
2022-12-19T06:57:11.228Z,20.40
2022-12-19T06:59:38.317Z,20.50
2022-12-19T07:02:27.630Z,20.50
2022-12-19T07:05:04.181Z,20.60
2022-12-19T07:07:31.375Z,20.60
2022-12-19T07:09:58.506Z,20.70
2022-12-19T07:12:26.775Z,20.70
2022-12-19T07:14:54.332Z,20.70
2022-12-19T07:17:24.050Z,20.80
2022-12-19T07:19:53.049Z,20.90
2022-12-19T07:22:20.762Z,21.00
2022-12-19T07:24:48.203Z,21.00
2022-12-19T07:27:15.418Z,21.10
2022-12-19T07:29:42.468Z,21.10
2022-12-19T07:32:09.723Z,21.20
2022-12-19T07:34:36.791Z,21.20
2022-12-19T07:37:04.441Z,21.30
2022-12-19T07:39:31.516Z,21.30
2022-12-19T07:41:58.605Z,21.40
2022-12-19T07:44:25.684Z,21.40
2022-12-19T07:46:52.822Z,21.50
2022-12-19T07:49:22.760Z,21.50
2022-12-19T07:51:50.201Z,21.50
2022-12-19T07:54:17.342Z,21.60
2022-12-19T07:56:44.423Z,21.60
2022-12-19T07:59:13.174Z,21.70
2022-12-19T08:01:41.125Z,21.70
2022-12-19T08:04:08.508Z,21.80
2022-12-19T08:06:40.821Z,21.80
2022-12-19T08:09:08.748Z,21.90
2022-12-19T08:11:35.793Z,21.90
2022-12-19T08:14:02.889Z,22.00
2022-12-19T08:16:30.349Z,22.00
2022-12-19T08:18:57.858Z,22.00
2022-12-19T08:21:25.549Z,22.10
2022-12-19T08:23:53.710Z,22.10
2022-12-19T08:26:25.559Z,22.10
2022-12-19T08:28:58.128Z,22.20
2022-12-19T08:31:27.548Z,22.20
2022-12-19T08:33:56.988Z,22.30
2022-12-19T08:36:24.877Z,22.30
2022-12-19T08:38:52.385Z,22.30
2022-12-19T08:41:19.949Z,22.40
2022-12-19T08:43:51.921Z,22.40
2022-12-19T08:46:20.309Z,22.50
2022-12-19T08:48:47.654Z,22.50
2022-12-19T08:51:17.403Z,22.60
2022-12-19T08:53:46.462Z,22.60
2022-12-19T08:56:19.580Z,22.60
2022-12-19T08:58:46.995Z,22.60
2022-12-19T09:01:19.127Z,22.60
2022-12-19T09:04:08.611Z,22.70
2022-12-19T09:06:35.051Z,22.70
2022-12-19T09:09:04.071Z,22.80
2022-12-19T09:11:31.436Z,22.70
2022-12-19T09:13:58.800Z,22.80
2022-12-19T09:16:27.669Z,22.80
2022-12-19T09:18:58.854Z,22.80
2022-12-19T09:21:29.219Z,22.80
2022-12-19T09:24:03.456Z,22.80
2022-12-19T09:26:34.924Z,22.80
2022-12-19T09:29:02.294Z,22.90
2022-12-19T09:31:30.262Z,22.90
2022-12-19T09:33:57.350Z,22.90
2022-12-19T09:36:25.923Z,22.90
2022-12-19T09:38:56.242Z,23.00
2022-12-19T09:41:43.043Z,23.00
2022-12-19T09:44:30.113Z,23.00
2022-12-19T09:47:13.620Z,23.00
2022-12-19T09:49:44.773Z,23.00
2022-12-19T09:52:33.548Z,23.00
2022-12-19T09:55:26.113Z,23.10
2022-12-19T09:58:05.816Z,23.10
2022-12-19T10:00:44.279Z,23.10
2022-12-19T10:03:42.159Z,23.10
2022-12-19T10:07:16.795Z,23.20
2022-12-19T10:11:16.289Z,23.20
2022-12-19T10:12:45.021Z,23.30
2022-12-19T10:15:33.750Z,23.30
2022-12-19T10:18:38.322Z,23.30
2022-12-19T10:22:07.544Z,23.30
2022-12-19T10:24:55.258Z,23.30
2022-12-19T10:28:15.933Z,23.40
2022-12-19T10:31:17.231Z,23.40
2022-12-19T10:34:02.735Z,23.40
2022-12-19T10:37:04.599Z,23.40
2022-12-19T10:39:33.277Z,23.40
2022-12-19T10:42:16.035Z,23.50
2022-12-19T10:44:45.998Z,23.50
2022-12-19T10:47:16.708Z,23.50
2022-12-19T10:49:45.168Z,23.50
2022-12-19T10:52:13.481Z,23.60
2022-12-19T10:54:44.002Z,23.60
2022-12-19T10:57:29.576Z,23.60
2022-12-19T11:00:15.947Z,23.60
2022-12-19T11:02:52.073Z,23.60
2022-12-19T11:05:32.038Z,23.70
2022-12-19T11:08:09.982Z,23.60
2022-12-19T11:12:01.081Z,23.70
2022-12-19T11:17:01.066Z,23.70
2022-12-19T11:20:53.989Z,23.70
2022-12-19T11:29:19.403Z,23.70
2022-12-19T11:29:46.775Z,23.70
2022-12-19T11:30:05.172Z,23.70
2022-12-19T11:30:46.429Z,23.70
2022-12-19T11:34:21.579Z,23.80
2022-12-19T11:37:13.350Z,23.80
2022-12-19T11:39:48.549Z,23.80
2022-12-19T11:42:26.768Z,23.80
2022-12-19T11:45:32.293Z,23.80
2022-12-19T11:48:12.251Z,23.90
2022-12-19T11:50:54.506Z,23.90
2022-12-19T11:53:34.732Z,23.90
2022-12-19T11:56:16.299Z,23.90
2022-12-19T11:58:50.556Z,23.80
2022-12-19T12:01:42.051Z,23.90
2022-12-19T12:04:40.791Z,23.90
2022-12-19T12:07:22.989Z,23.90
2022-12-19T12:13:10.777Z,23.90
2022-12-19T12:23:31.083Z,23.90
2022-12-19T12:27:26.782Z,23.90
2022-12-19T12:31:32.346Z,23.90
2022-12-19T12:31:46.810Z,23.90
2022-12-19T12:32:01.909Z,23.90
2022-12-19T12:32:03.190Z,23.80
2022-12-19T12:35:32.950Z,23.90
2022-12-19T12:38:48.176Z,23.80
2022-12-19T12:41:52.872Z,23.80
2022-12-19T12:44:32.626Z,23.80
2022-12-19T12:47:23.043Z,23.80
2022-12-19T12:50:00.466Z,23.80
2022-12-19T12:52:40.780Z,23.70
2022-12-19T12:55:28.001Z,23.80
2022-12-19T12:57:55.627Z,23.80
2022-12-19T13:00:26.626Z,23.70
2022-12-19T13:03:02.648Z,23.70
2022-12-19T13:05:40.959Z,23.70
2022-12-19T13:08:32.017Z,23.70
2022-12-19T13:11:02.623Z,23.70
2022-12-19T13:13:55.060Z,23.70
2022-12-19T13:16:48.811Z,23.70
2022-12-19T13:19:31.131Z,23.80
2022-12-19T13:22:18.647Z,23.80
2022-12-19T13:24:56.186Z,23.80
2022-12-19T13:27:38.615Z,23.80
2022-12-19T13:30:16.166Z,23.80
2022-12-19T13:33:08.141Z,23.80
2022-12-19T13:39:04.776Z,23.80
2022-12-19T13:39:49.403Z,23.80
2022-12-19T13:41:59.829Z,23.80
2022-12-19T13:44:27.807Z,23.70
2022-12-19T13:46:56.201Z,23.80
2022-12-19T13:49:34.307Z,23.70
2022-12-19T13:52:03.032Z,23.70
2022-12-19T13:54:36.584Z,23.70
2022-12-19T13:57:09.078Z,23.70
2022-12-19T13:59:40.144Z,23.70
2022-12-19T14:02:30.170Z,23.70
2022-12-19T14:04:59.322Z,23.70
2022-12-19T14:07:39.478Z,23.70
2022-12-19T14:11:31.384Z,23.70
2022-12-19T14:13:59.011Z,23.70
2022-12-19T14:16:20.046Z,23.70
2022-12-19T14:18:50.576Z,23.70
2022-12-19T14:22:05.678Z,23.60
2022-12-19T14:24:12.565Z,23.60
2022-12-19T14:28:24.404Z,23.60
2022-12-19T14:30:19.862Z,23.60
2022-12-19T14:33:39.847Z,23.60
2022-12-19T14:36:07.057Z,23.60
2022-12-19T14:39:24.815Z,23.60
2022-12-19T14:41:07.823Z,23.60
2022-12-19T14:43:58.575Z,23.60
2022-12-19T14:54:09.465Z,23.60
2022-12-19T14:54:14.085Z,23.50
2022-12-19T14:54:52.672Z,23.50
2022-12-19T14:56:08.921Z,23.50
2022-12-19T14:58:56.080Z,23.50
2022-12-19T15:01:24.223Z,23.50
2022-12-19T15:04:53.509Z,23.50
2022-12-19T15:07:07.656Z,23.50
2022-12-19T15:11:04.267Z,23.50
2022-12-19T15:14:54.923Z,23.50
2022-12-19T15:16:30.762Z,23.50
2022-12-19T15:19:00.621Z,23.40
2022-12-19T15:21:29.218Z,23.40
2022-12-19T15:23:56.433Z,23.40
2022-12-19T15:26:35.711Z,23.30
2022-12-19T15:29:07.174Z,23.30
2022-12-19T15:31:43.127Z,23.30
2022-12-19T15:34:35.903Z,23.30
2022-12-19T15:37:05.243Z,23.20
2022-12-19T15:39:32.550Z,23.10
2022-12-19T15:42:00.607Z,23.10
2022-12-19T15:44:43.950Z,23.00
2022-12-19T15:47:35.662Z,23.00
2022-12-19T15:50:22.641Z,22.90
2022-12-19T15:52:50.247Z,22.80
2022-12-19T15:55:19.531Z,22.70
2022-12-19T15:57:57.005Z,22.70
2022-12-19T16:00:27.949Z,22.60
2022-12-19T16:05:43.045Z,22.50
2022-12-19T16:08:13.170Z,22.50
2022-12-19T16:10:41.874Z,22.40
2022-12-19T16:13:21.467Z,22.40
2022-12-19T16:15:49.465Z,22.30
2022-12-19T16:18:17.324Z,22.20
2022-12-19T16:20:44.423Z,22.20
2022-12-19T16:23:12.348Z,22.20
2022-12-19T16:25:48.235Z,22.10
2022-12-19T16:28:25.615Z,22.10
2022-12-19T16:30:53.036Z,22.10
2022-12-19T16:33:27.945Z,22.00
2022-12-19T16:36:05.252Z,22.00
2022-12-19T16:38:33.611Z,22.00
2022-12-19T16:41:01.750Z,21.90
2022-12-19T16:43:32.287Z,21.90
2022-12-19T16:46:01.507Z,21.90
2022-12-19T16:48:30.354Z,21.80
2022-12-19T16:50:59.116Z,21.80
2022-12-19T16:53:26.464Z,21.80
2022-12-19T16:55:55.430Z,21.80
2022-12-19T16:58:25.377Z,21.70
2022-12-19T17:00:55.316Z,21.70
2022-12-19T17:03:43.402Z,21.60
2022-12-19T17:06:13.900Z,21.60
2022-12-19T17:08:41.114Z,21.60
2022-12-19T17:11:19.039Z,21.60
2022-12-19T17:13:49.408Z,21.60
2022-12-19T17:16:16.898Z,21.60
2022-12-19T17:18:46.351Z,21.60
2022-12-19T17:21:18.592Z,21.60
2022-12-19T17:23:49.428Z,21.60
2022-12-19T17:26:18.104Z,21.60
2022-12-19T17:28:48.370Z,21.60
2022-12-19T17:31:28.900Z,21.50
2022-12-19T17:33:58.073Z,21.50
2022-12-19T17:36:32.618Z,21.50
2022-12-19T17:39:17.743Z,21.50
2022-12-19T17:41:45.222Z,21.50
2022-12-19T17:44:12.285Z,21.50
2022-12-19T17:46:39.435Z,21.50
2022-12-19T17:49:09.749Z,21.40
2022-12-19T17:51:37.337Z,21.40
2022-12-19T17:54:04.459Z,21.30
2022-12-19T17:56:31.485Z,21.30
2022-12-19T17:58:58.617Z,21.30
2022-12-19T18:01:26.018Z,21.30
2022-12-19T18:03:56.285Z,21.30
2022-12-19T18:06:23.424Z,21.30
2022-12-19T18:08:50.544Z,21.20
2022-12-19T18:11:21.568Z,21.20
2022-12-19T18:13:49.500Z,21.20
2022-12-19T18:16:19.867Z,21.20
2022-12-19T18:18:47.075Z,21.20
2022-12-19T18:21:17.060Z,21.20
2022-12-19T18:23:44.616Z,21.10
2022-12-19T18:26:12.368Z,21.20
2022-12-19T18:28:40.378Z,21.10
2022-12-19T18:31:26.152Z,21.10
2022-12-19T18:33:54.831Z,21.10
2022-12-19T18:36:25.540Z,21.10
2022-12-19T18:38:53.427Z,21.10
2022-12-19T18:41:21.047Z,21.00
2022-12-19T18:43:48.655Z,21.00
2022-12-19T18:46:19.590Z,21.00
2022-12-19T18:48:46.731Z,21.00
2022-12-19T18:51:17.028Z,21.00
2022-12-19T18:53:45.227Z,21.00
2022-12-19T18:56:12.494Z,21.00
2022-12-19T18:58:39.712Z,21.00
2022-12-19T19:01:12.826Z,21.00
2022-12-19T19:03:41.966Z,20.90
2022-12-19T19:06:19.559Z,20.90
2022-12-19T19:08:46.712Z,20.90
2022-12-19T19:11:13.825Z,20.90
2022-12-19T19:13:40.898Z,20.90
2022-12-19T19:16:18.379Z,20.90
2022-12-19T19:18:47.390Z,20.90
2022-12-19T19:21:15.580Z,20.80
2022-12-19T19:23:58.085Z,20.80
2022-12-19T19:26:25.193Z,20.90
2022-12-19T19:28:52.939Z,20.80
2022-12-19T19:31:23.545Z,20.80
2022-12-19T19:33:55.882Z,20.80
2022-12-19T19:36:28.024Z,20.80
2022-12-19T19:38:57.400Z,20.80
2022-12-19T19:41:29.931Z,20.80
2022-12-19T19:43:57.821Z,20.80
2022-12-19T19:46:25.206Z,20.80
2022-12-19T19:48:52.349Z,20.80
2022-12-19T19:51:19.527Z,20.80
2022-12-19T19:53:47.053Z,20.80
2022-12-19T19:56:14.409Z,20.80
2022-12-19T19:58:41.569Z,20.70
2022-12-19T20:01:11.037Z,20.70
2022-12-19T20:03:40.277Z,20.70
2022-12-19T20:06:07.763Z,20.70
2022-12-19T20:08:39.731Z,20.70
2022-12-19T20:11:08.003Z,20.70
2022-12-19T20:13:35.188Z,20.70
2022-12-19T20:16:11.445Z,20.70
2022-12-19T20:18:40.376Z,20.70
2022-12-19T20:21:13.207Z,20.70
2022-12-19T20:23:42.855Z,20.60
2022-12-19T20:26:11.617Z,20.70
2022-12-19T20:28:45.936Z,20.60
2022-12-19T20:31:16.803Z,20.60
2022-12-19T20:33:44.026Z,20.60
2022-12-19T20:36:12.850Z,20.60
2022-12-19T20:38:40.657Z,20.60
2022-12-19T20:41:08.176Z,20.60
2022-12-19T20:43:35.806Z,20.60
2022-12-19T20:46:05.583Z,20.60
2022-12-19T20:48:33.196Z,20.60
2022-12-19T20:51:01.890Z,20.60
2022-12-19T20:53:28.989Z,20.60
2022-12-19T20:55:59.087Z,20.60
2022-12-19T20:58:27.201Z,20.60
2022-12-19T21:01:03.402Z,20.60
2022-12-19T21:03:30.867Z,20.50
2022-12-19T21:05:58.561Z,20.50
2022-12-19T21:08:26.665Z,20.50
2022-12-19T21:10:53.935Z,20.50
2022-12-19T21:13:22.429Z,20.50
2022-12-19T21:15:58.876Z,20.50
2022-12-19T21:18:26.907Z,20.50
2022-12-19T21:20:54.905Z,20.50
2022-12-19T21:23:23.423Z,20.50
2022-12-19T21:25:50.570Z,20.50
2022-12-19T21:28:18.023Z,20.50
2022-12-19T21:30:45.125Z,20.50
2022-12-19T21:33:12.257Z,20.50
2022-12-19T21:35:39.316Z,20.50
2022-12-19T21:38:06.417Z,20.50
2022-12-19T21:40:36.401Z,20.50
2022-12-19T21:43:11.206Z,20.50
2022-12-19T21:45:39.786Z,20.50
2022-12-19T21:48:07.108Z,20.50
2022-12-19T21:50:34.159Z,20.50
2022-12-19T21:53:01.405Z,20.50
2022-12-19T21:55:28.484Z,20.40
2022-12-19T21:57:55.831Z,20.40
2022-12-19T22:00:23.161Z,20.40
2022-12-19T22:03:12.778Z,20.40
2022-12-19T22:05:37.808Z,20.40
2022-12-19T22:08:05.123Z,20.40
2022-12-19T22:10:32.209Z,20.40
2022-12-19T22:12:59.338Z,20.40
2022-12-19T22:15:26.369Z,20.40
2022-12-19T22:17:53.409Z,20.40
2022-12-19T22:20:20.514Z,20.40
2022-12-19T22:22:47.683Z,20.40
2022-12-19T22:25:15.523Z,20.40
2022-12-19T22:27:42.663Z,20.40
2022-12-19T22:30:11.268Z,20.40
2022-12-19T22:32:38.601Z,20.40
2022-12-19T22:35:06.243Z,20.40
2022-12-19T22:37:33.384Z,20.30
2022-12-19T22:40:00.677Z,20.40
2022-12-19T22:42:28.261Z,20.30
2022-12-19T22:44:55.348Z,20.40
2022-12-19T22:47:22.459Z,20.30
2022-12-19T22:49:52.654Z,20.40
2022-12-19T22:52:19.879Z,20.30
2022-12-19T22:54:46.898Z,20.30
2022-12-19T22:57:13.955Z,20.30
2022-12-19T22:59:42.212Z,20.30
2022-12-19T23:02:09.636Z,20.30
2022-12-19T23:04:36.790Z,20.30
2022-12-19T23:07:03.852Z,20.30
2022-12-19T23:09:30.922Z,20.30
2022-12-19T23:11:57.972Z,20.30
2022-12-19T23:14:25.039Z,20.30
2022-12-19T23:16:52.141Z,20.30
2022-12-19T23:19:19.325Z,20.30
2022-12-19T23:21:46.544Z,20.30
2022-12-19T23:24:14.198Z,20.30
2022-12-19T23:26:41.299Z,20.30
2022-12-19T23:29:11.876Z,20.30
2022-12-19T23:31:44.436Z,20.30
2022-12-19T23:34:11.828Z,20.30
2022-12-19T23:39:26.569Z,20.20
2022-12-19T23:41:53.635Z,20.30
2022-12-19T23:44:20.779Z,20.30
2022-12-19T23:46:47.833Z,20.30
2022-12-19T23:49:15.809Z,20.30
2022-12-19T23:51:43.166Z,20.30
2022-12-19T23:54:10.275Z,20.30
2022-12-19T23:56:37.669Z,20.30
2022-12-19T23:59:04.905Z,20.30
